sensor_id;sensor_type;location;lat;lon;timestamp;temperature;humidity
254;DHT22;590;48.772;8.846;2022-10-01T00:02:07;7.90;99.90
254;DHT22;590;48.772;8.846;2022-10-01T00:04:35;8.00;99.90
254;DHT22;590;48.772;8.846;2022-10-01T00:07:04;8.00;99.90
254;DHT22;590;48.772;8.846;2022-10-01T00:09:36;8.00;99.90
254;DHT22;590;48.772;8.846;2022-10-01T00:12:05;7.90;99.90
254;DHT22;590;48.772;8.846;2022-10-01T00:14:34;7.90;99.90
254;DHT22;590;48.772;8.846;2022-10-01T00:17:04;7.90;99.90
254;DHT22;590;48.772;8.846;2022-10-01T00:19:32;7.80;99.90
254;DHT22;590;48.772;8.846;2022-10-01T00:22:00;7.80;99.90
254;DHT22;590;48.772;8.846;2022-10-01T00:24:28;7.80;99.90
254;DHT22;590;48.772;8.846;2022-10-01T00:26:56;7.80;99.90
254;DHT22;590;48.772;8.846;2022-10-01T00:29:25;7.80;99.90
254;DHT22;590;48.772;8.846;2022-10-01T00:31:53;7.80;99.90
254;DHT22;590;48.772;8.846;2022-10-01T00:34:23;7.90;99.90
254;DHT22;590;48.772;8.846;2022-10-01T00:36:51;7.90;99.90
254;DHT22;590;48.772;8.846;2022-10-01T00:39:19;7.90;99.90
254;DHT22;590;48.772;8.846;2022-10-01T00:41:47;8.00;99.90
254;DHT22;590;48.772;8.846;2022-10-01T00:44:32;8.00;99.90
254;DHT22;590;48.772;8.846;2022-10-01T00:47:07;8.00;99.90
254;DHT22;590;48.772;8.846;2022-10-01T00:49:38;8.10;99.90
254;DHT22;590;48.772;8.846;2022-10-01T00:52:10;8.00;99.90
254;DHT22;590;48.772;8.846;2022-10-01T00:54:43;8.10;99.90
254;DHT22;590;48.772;8.846;2022-10-01T00:57:16;8.10;99.90
254;DHT22;590;48.772;8.846;2022-10-01T00:59:47;8.10;99.90
254;DHT22;590;48.772;8.846;2022-10-01T01:02:16;8.00;99.90
254;DHT22;590;48.772;8.846;2022-10-01T01:04:44;8.00;99.90
254;DHT22;590;48.772;8.846;2022-10-01T01:07:12;8.00;99.90
254;DHT22;590;48.772;8.846;2022-10-01T01:09:43;7.90;99.90
254;DHT22;590;48.772;8.846;2022-10-01T01:12:27;7.90;99.90
254;DHT22;590;48.772;8.846;2022-10-01T01:15:06;7.80;99.90
254;DHT22;590;48.772;8.846;2022-10-01T01:17:45;7.70;99.90
254;DHT22;590;48.772;8.846;2022-10-01T01:20:48;7.70;99.90
254;DHT22;590;48.772;8.846;2022-10-01T01:26:48;7.90;99.90
254;DHT22;590;48.772;8.846;2022-10-01T01:29:24;7.90;99.90
254;DHT22;590;48.772;8.846;2022-10-01T01:31:59;8.00;99.90
254;DHT22;590;48.772;8.846;2022-10-01T01:34:30;8.10;99.90
254;DHT22;590;48.772;8.846;2022-10-01T01:37:02;8.10;99.90
254;DHT22;590;48.772;8.846;2022-10-01T01:39:33;8.20;99.90
254;DHT22;590;48.772;8.846;2022-10-01T01:42:06;8.20;99.90
254;DHT22;590;48.772;8.846;2022-10-01T01:44:38;8.20;99.90
254;DHT22;590;48.772;8.846;2022-10-01T01:47:08;8.30;99.90
254;DHT22;590;48.772;8.846;2022-10-01T01:49:37;8.30;99.90
254;DHT22;590;48.772;8.846;2022-10-01T01:52:09;8.30;99.90
254;DHT22;590;48.772;8.846;2022-10-01T01:54:39;8.40;99.90
254;DHT22;590;48.772;8.846;2022-10-01T01:57:22;8.40;99.90
254;DHT22;590;48.772;8.846;2022-10-01T01:59:53;8.40;99.90
254;DHT22;590;48.772;8.846;2022-10-01T02:02:24;8.40;99.90
254;DHT22;590;48.772;8.846;2022-10-01T02:04:55;8.40;99.90
254;DHT22;590;48.772;8.846;2022-10-01T02:07:41;8.40;99.90
254;DHT22;590;48.772;8.846;2022-10-01T02:10:22;8.50;99.90
254;DHT22;590;48.772;8.846;2022-10-01T02:13:08;8.50;99.90
254;DHT22;590;48.772;8.846;2022-10-01T02:15:45;8.50;99.90
254;DHT22;590;48.772;8.846;2022-10-01T02:18:22;8.60;99.90
254;DHT22;590;48.772;8.846;2022-10-01T02:21:01;8.60;99.90
254;DHT22;590;48.772;8.846;2022-10-01T02:23:34;8.60;99.90
254;DHT22;590;48.772;8.846;2022-10-01T02:26:09;8.60;99.90
254;DHT22;590;48.772;8.846;2022-10-01T02:28:39;8.60;99.90
254;DHT22;590;48.772;8.846;2022-10-01T02:31:10;8.70;99.90
254;DHT22;590;48.772;8.846;2022-10-01T02:33:40;8.70;99.90
254;DHT22;590;48.772;8.846;2022-10-01T02:36:10;8.70;99.90
254;DHT22;590;48.772;8.846;2022-10-01T02:38:41;8.70;99.90
254;DHT22;590;48.772;8.846;2022-10-01T02:41:13;8.70;99.90
254;DHT22;590;48.772;8.846;2022-10-01T02:43:47;8.80;99.90
254;DHT22;590;48.772;8.846;2022-10-01T02:46:24;8.80;99.90
254;DHT22;590;48.772;8.846;2022-10-01T02:48:54;8.70;99.90
254;DHT22;590;48.772;8.846;2022-10-01T02:51:30;8.80;99.90
254;DHT22;590;48.772;8.846;2022-10-01T02:54:07;8.80;99.90
254;DHT22;590;48.772;8.846;2022-10-01T02:56:36;8.80;99.90
254;DHT22;590;48.772;8.846;2022-10-01T02:59:22;8.80;99.90
254;DHT22;590;48.772;8.846;2022-10-01T03:01:51;8.90;99.90
254;DHT22;590;48.772;8.846;2022-10-01T03:04:19;8.90;99.90
254;DHT22;590;48.772;8.846;2022-10-01T03:06:47;8.90;99.90
254;DHT22;590;48.772;8.846;2022-10-01T03:09:15;9.00;99.90
254;DHT22;590;48.772;8.846;2022-10-01T03:11:43;8.90;99.90
254;DHT22;590;48.772;8.846;2022-10-01T03:14:11;8.90;99.90
254;DHT22;590;48.772;8.846;2022-10-01T03:16:39;9.00;99.90
254;DHT22;590;48.772;8.846;2022-10-01T03:19:08;9.00;99.90
254;DHT22;590;48.772;8.846;2022-10-01T03:21:36;9.00;99.90
254;DHT22;590;48.772;8.846;2022-10-01T03:24:05;9.00;99.90
254;DHT22;590;48.772;8.846;2022-10-01T03:26:34;9.00;99.90
254;DHT22;590;48.772;8.846;2022-10-01T03:29:03;9.00;99.90
254;DHT22;590;48.772;8.846;2022-10-01T03:31:31;9.00;99.90
254;DHT22;590;48.772;8.846;2022-10-01T03:34:00;9.10;99.90
254;DHT22;590;48.772;8.846;2022-10-01T03:36:29;9.10;99.90
254;DHT22;590;48.772;8.846;2022-10-01T03:38:58;9.10;99.90
254;DHT22;590;48.772;8.846;2022-10-01T03:41:26;9.10;99.90
254;DHT22;590;48.772;8.846;2022-10-01T03:43:54;9.20;99.90
254;DHT22;590;48.772;8.846;2022-10-01T03:46:26;9.20;99.90
254;DHT22;590;48.772;8.846;2022-10-01T03:48:54;9.20;99.90
254;DHT22;590;48.772;8.846;2022-10-01T03:51:23;9.30;99.90
254;DHT22;590;48.772;8.846;2022-10-01T03:53:52;9.30;99.90
254;DHT22;590;48.772;8.846;2022-10-01T03:56:20;9.40;99.90
254;DHT22;590;48.772;8.846;2022-10-01T03:58:48;9.40;99.90
254;DHT22;590;48.772;8.846;2022-10-01T04:01:16;9.50;99.90
254;DHT22;590;48.772;8.846;2022-10-01T04:03:44;9.40;99.90
254;DHT22;590;48.772;8.846;2022-10-01T04:06:12;9.50;99.90
254;DHT22;590;48.772;8.846;2022-10-01T04:08:40;9.50;99.90
254;DHT22;590;48.772;8.846;2022-10-01T04:11:10;9.60;99.90
254;DHT22;590;48.772;8.846;2022-10-01T04:13:38;9.60;99.90
254;DHT22;590;48.772;8.846;2022-10-01T04:16:06;9.60;99.90
254;DHT22;590;48.772;8.846;2022-10-01T04:18:34;9.60;99.90
254;DHT22;590;48.772;8.846;2022-10-01T04:21:02;9.60;99.90
254;DHT22;590;48.772;8.846;2022-10-01T04:23:30;9.60;99.90
254;DHT22;590;48.772;8.846;2022-10-01T04:25:58;9.60;99.90
254;DHT22;590;48.772;8.846;2022-10-01T04:28:30;9.60;99.90
254;DHT22;590;48.772;8.846;2022-10-01T04:30:58;9.70;99.90
254;DHT22;590;48.772;8.846;2022-10-01T04:33:40;9.70;99.90
254;DHT22;590;48.772;8.846;2022-10-01T04:36:08;9.70;99.90
254;DHT22;590;48.772;8.846;2022-10-01T04:38:36;9.80;99.90
254;DHT22;590;48.772;8.846;2022-10-01T04:41:05;9.80;99.90
254;DHT22;590;48.772;8.846;2022-10-01T04:43:34;9.80;99.90
254;DHT22;590;48.772;8.846;2022-10-01T04:46:02;9.80;99.90
254;DHT22;590;48.772;8.846;2022-10-01T04:48:30;9.80;99.90
254;DHT22;590;48.772;8.846;2022-10-01T04:50:58;9.80;99.90
254;DHT22;590;48.772;8.846;2022-10-01T04:53:26;9.80;99.90
254;DHT22;590;48.772;8.846;2022-10-01T04:55:54;9.80;99.90
254;DHT22;590;48.772;8.846;2022-10-01T04:58:22;9.90;99.90
254;DHT22;590;48.772;8.846;2022-10-01T05:00:51;9.90;99.90
254;DHT22;590;48.772;8.846;2022-10-01T05:03:25;9.90;99.90
254;DHT22;590;48.772;8.846;2022-10-01T05:05:54;9.90;99.90
254;DHT22;590;48.772;8.846;2022-10-01T05:08:21;9.90;99.90
254;DHT22;590;48.772;8.846;2022-10-01T05:10:49;10.00;99.90
254;DHT22;590;48.772;8.846;2022-10-01T05:13:18;10.00;99.90
254;DHT22;590;48.772;8.846;2022-10-01T05:15:48;10.00;99.90
254;DHT22;590;48.772;8.846;2022-10-01T05:18:19;10.10;99.90
254;DHT22;590;48.772;8.846;2022-10-01T05:20:47;10.10;99.90
254;DHT22;590;48.772;8.846;2022-10-01T05:23:15;10.10;99.90
254;DHT22;590;48.772;8.846;2022-10-01T05:25:43;10.10;99.90
254;DHT22;590;48.772;8.846;2022-10-01T05:28:13;10.10;99.90
254;DHT22;590;48.772;8.846;2022-10-01T05:30:47;10.10;99.90
254;DHT22;590;48.772;8.846;2022-10-01T05:33:16;10.10;99.90
254;DHT22;590;48.772;8.846;2022-10-01T05:35:46;10.10;99.90
254;DHT22;590;48.772;8.846;2022-10-01T05:38:14;10.10;99.90
254;DHT22;590;48.772;8.846;2022-10-01T05:40:44;10.20;99.90
254;DHT22;590;48.772;8.846;2022-10-01T05:43:13;10.20;99.90
254;DHT22;590;48.772;8.846;2022-10-01T05:45:41;10.20;99.90
254;DHT22;590;48.772;8.846;2022-10-01T05:48:09;10.20;99.90
254;DHT22;590;48.772;8.846;2022-10-01T05:50:38;10.30;99.90
254;DHT22;590;48.772;8.846;2022-10-01T05:53:10;10.30;99.90
254;DHT22;590;48.772;8.846;2022-10-01T05:55:39;10.30;99.90
254;DHT22;590;48.772;8.846;2022-10-01T05:58:09;10.30;99.90
254;DHT22;590;48.772;8.846;2022-10-01T06:00:39;10.40;99.90
254;DHT22;590;48.772;8.846;2022-10-01T06:03:08;10.40;99.90
254;DHT22;590;48.772;8.846;2022-10-01T06:05:38;10.40;99.90
254;DHT22;590;48.772;8.846;2022-10-01T06:08:07;10.40;99.90
254;DHT22;590;48.772;8.846;2022-10-01T06:10:38;10.40;99.90
254;DHT22;590;48.772;8.846;2022-10-01T06:13:06;10.50;99.90
254;DHT22;590;48.772;8.846;2022-10-01T06:15:36;10.50;99.90
254;DHT22;590;48.772;8.846;2022-10-01T06:18:06;10.50;99.90
254;DHT22;590;48.772;8.846;2022-10-01T06:20:34;10.50;99.90
254;DHT22;590;48.772;8.846;2022-10-01T06:23:04;10.50;99.90
254;DHT22;590;48.772;8.846;2022-10-01T06:25:33;10.50;99.90
254;DHT22;590;48.772;8.846;2022-10-01T06:28:05;10.60;99.90
254;DHT22;590;48.772;8.846;2022-10-01T06:30:35;10.60;99.90
254;DHT22;590;48.772;8.846;2022-10-01T06:33:06;10.60;99.90
254;DHT22;590;48.772;8.846;2022-10-01T06:35:39;10.60;99.90
254;DHT22;590;48.772;8.846;2022-10-01T06:38:07;10.70;99.90
254;DHT22;590;48.772;8.846;2022-10-01T06:40:35;10.70;99.90
254;DHT22;590;48.772;8.846;2022-10-01T06:43:05;10.70;99.90
254;DHT22;590;48.772;8.846;2022-10-01T06:45:36;10.70;99.90
254;DHT22;590;48.772;8.846;2022-10-01T06:48:05;10.80;99.90
254;DHT22;590;48.772;8.846;2022-10-01T06:50:33;10.80;99.90
254;DHT22;590;48.772;8.846;2022-10-01T06:53:01;10.80;99.90
254;DHT22;590;48.772;8.846;2022-10-01T06:55:31;10.80;99.90
254;DHT22;590;48.772;8.846;2022-10-01T06:58:01;10.80;99.90
254;DHT22;590;48.772;8.846;2022-10-01T07:00:32;10.90;99.90
254;DHT22;590;48.772;8.846;2022-10-01T07:03:00;10.90;99.90
254;DHT22;590;48.772;8.846;2022-10-01T07:05:29;10.90;99.90
254;DHT22;590;48.772;8.846;2022-10-01T07:07:57;11.00;99.90
254;DHT22;590;48.772;8.846;2022-10-01T07:10:25;11.00;99.90
254;DHT22;590;48.772;8.846;2022-10-01T07:12:52;11.00;99.90
254;DHT22;590;48.772;8.846;2022-10-01T07:15:21;11.00;99.90
254;DHT22;590;48.772;8.846;2022-10-01T07:17:51;11.00;99.90
254;DHT22;590;48.772;8.846;2022-10-01T07:20:19;11.00;99.90
254;DHT22;590;48.772;8.846;2022-10-01T07:22:48;11.00;99.90
254;DHT22;590;48.772;8.846;2022-10-01T07:25:16;11.00;99.90
254;DHT22;590;48.772;8.846;2022-10-01T07:27:44;11.00;99.90
254;DHT22;590;48.772;8.846;2022-10-01T07:30:12;11.10;99.90
254;DHT22;590;48.772;8.846;2022-10-01T07:32:42;11.10;99.90
254;DHT22;590;48.772;8.846;2022-10-01T07:35:12;11.10;99.90
254;DHT22;590;48.772;8.846;2022-10-01T07:37:40;11.10;99.90
254;DHT22;590;48.772;8.846;2022-10-01T07:40:08;11.10;99.90
254;DHT22;590;48.772;8.846;2022-10-01T07:42:36;11.10;99.90
254;DHT22;590;48.772;8.846;2022-10-01T07:45:06;11.20;99.90
254;DHT22;590;48.772;8.846;2022-10-01T07:47:34;11.20;99.90
254;DHT22;590;48.772;8.846;2022-10-01T07:50:02;11.20;99.90
254;DHT22;590;48.772;8.846;2022-10-01T07:52:34;11.20;99.90
254;DHT22;590;48.772;8.846;2022-10-01T07:55:02;11.20;99.90
254;DHT22;590;48.772;8.846;2022-10-01T07:57:31;11.20;99.90
254;DHT22;590;48.772;8.846;2022-10-01T08:00:00;11.30;99.90
254;DHT22;590;48.772;8.846;2022-10-01T08:02:28;11.30;99.90
254;DHT22;590;48.772;8.846;2022-10-01T08:04:56;11.20;99.90
254;DHT22;590;48.772;8.846;2022-10-01T08:07:43;11.30;99.90
254;DHT22;590;48.772;8.846;2022-10-01T08:10:11;11.40;99.90
254;DHT22;590;48.772;8.846;2022-10-01T08:12:39;11.40;99.90
254;DHT22;590;48.772;8.846;2022-10-01T08:15:09;11.40;99.90
254;DHT22;590;48.772;8.846;2022-10-01T08:17:37;11.40;99.90
254;DHT22;590;48.772;8.846;2022-10-01T08:20:07;11.40;99.90
254;DHT22;590;48.772;8.846;2022-10-01T08:22:36;11.40;99.90
254;DHT22;590;48.772;8.846;2022-10-01T08:25:09;11.40;99.90
254;DHT22;590;48.772;8.846;2022-10-01T08:27:37;11.40;99.90
254;DHT22;590;48.772;8.846;2022-10-01T08:30:06;11.50;99.90
254;DHT22;590;48.772;8.846;2022-10-01T08:32:35;11.50;99.90
254;DHT22;590;48.772;8.846;2022-10-01T08:35:03;11.50;99.90
254;DHT22;590;48.772;8.846;2022-10-01T08:37:32;11.50;99.90
254;DHT22;590;48.772;8.846;2022-10-01T08:40:00;11.60;99.90
254;DHT22;590;48.772;8.846;2022-10-01T08:42:40;11.60;99.90
254;DHT22;590;48.772;8.846;2022-10-01T08:45:13;11.70;99.90
254;DHT22;590;48.772;8.846;2022-10-01T08:47:46;11.70;99.90
254;DHT22;590;48.772;8.846;2022-10-01T08:50:27;11.80;99.90
254;DHT22;590;48.772;8.846;2022-10-01T08:53:01;11.80;99.90
254;DHT22;590;48.772;8.846;2022-10-01T08:55:31;11.90;99.90
254;DHT22;590;48.772;8.846;2022-10-01T08:58:05;12.00;99.90
254;DHT22;590;48.772;8.846;2022-10-01T09:00:35;12.00;99.90
254;DHT22;590;48.772;8.846;2022-10-01T09:03:10;12.00;99.90
254;DHT22;590;48.772;8.846;2022-10-01T09:05:48;12.10;99.90
254;DHT22;590;48.772;8.846;2022-10-01T09:08:24;12.20;99.90
254;DHT22;590;48.772;8.846;2022-10-01T09:11:16;12.20;99.90
254;DHT22;590;48.772;8.846;2022-10-01T09:14:15;12.20;99.90
254;DHT22;590;48.772;8.846;2022-10-01T09:16:51;12.20;99.90
254;DHT22;590;48.772;8.846;2022-10-01T09:19:38;12.20;99.90
254;DHT22;590;48.772;8.846;2022-10-01T09:22:18;12.20;99.90
254;DHT22;590;48.772;8.846;2022-10-01T09:24:58;12.20;99.90
254;DHT22;590;48.772;8.846;2022-10-01T09:27:27;12.20;99.90
254;DHT22;590;48.772;8.846;2022-10-01T09:29:58;12.20;99.90
254;DHT22;590;48.772;8.846;2022-10-01T09:32:32;12.20;99.90
254;DHT22;590;48.772;8.846;2022-10-01T09:35:10;12.20;99.90
254;DHT22;590;48.772;8.846;2022-10-01T09:37:45;12.30;99.90
254;DHT22;590;48.772;8.846;2022-10-01T09:40:20;12.30;99.90
254;DHT22;590;48.772;8.846;2022-10-01T09:42:51;12.30;99.90
254;DHT22;590;48.772;8.846;2022-10-01T09:45:22;12.40;99.90
254;DHT22;590;48.772;8.846;2022-10-01T09:47:53;12.40;99.90
254;DHT22;590;48.772;8.846;2022-10-01T09:50:29;12.40;99.90
254;DHT22;590;48.772;8.846;2022-10-01T09:52:59;12.40;99.90
254;DHT22;590;48.772;8.846;2022-10-01T09:55:31;12.40;99.90
254;DHT22;590;48.772;8.846;2022-10-01T09:58:07;12.40;99.90
254;DHT22;590;48.772;8.846;2022-10-01T10:00:38;12.50;99.90
254;DHT22;590;48.772;8.846;2022-10-01T10:03:06;12.50;99.90
254;DHT22;590;48.772;8.846;2022-10-01T10:05:43;12.50;99.90
254;DHT22;590;48.772;8.846;2022-10-01T10:08:22;12.60;99.90
254;DHT22;590;48.772;8.846;2022-10-01T10:10:53;12.60;99.90
254;DHT22;590;48.772;8.846;2022-10-01T10:13:28;12.70;99.90
254;DHT22;590;48.772;8.846;2022-10-01T10:16:08;12.80;99.90
254;DHT22;590;48.772;8.846;2022-10-01T10:18:41;12.90;99.90
254;DHT22;590;48.772;8.846;2022-10-01T10:21:14;12.90;99.90
254;DHT22;590;48.772;8.846;2022-10-01T10:23:48;13.00;99.90
254;DHT22;590;48.772;8.846;2022-10-01T10:26:19;13.00;99.90
254;DHT22;590;48.772;8.846;2022-10-01T10:28:47;13.10;99.90
254;DHT22;590;48.772;8.846;2022-10-01T10:31:19;13.10;99.90
254;DHT22;590;48.772;8.846;2022-10-01T10:33:50;13.20;99.90
254;DHT22;590;48.772;8.846;2022-10-01T10:36:20;13.30;99.90
254;DHT22;590;48.772;8.846;2022-10-01T10:38:50;13.40;99.90
254;DHT22;590;48.772;8.846;2022-10-01T10:41:19;13.50;99.90
254;DHT22;590;48.772;8.846;2022-10-01T10:43:54;13.60;99.90
254;DHT22;590;48.772;8.846;2022-10-01T10:46:27;13.80;99.90
254;DHT22;590;48.772;8.846;2022-10-01T10:49:02;13.90;99.90
254;DHT22;590;48.772;8.846;2022-10-01T10:51:44;14.20;99.90
254;DHT22;590;48.772;8.846;2022-10-01T10:54:19;14.50;99.90
254;DHT22;590;48.772;8.846;2022-10-01T10:56:55;14.70;99.90
254;DHT22;590;48.772;8.846;2022-10-01T10:59:32;14.90;99.90
254;DHT22;590;48.772;8.846;2022-10-01T11:02:04;15.20;99.90
254;DHT22;590;48.772;8.846;2022-10-01T11:04:38;15.40;99.90
254;DHT22;590;48.772;8.846;2022-10-01T11:07:08;15.40;99.90
254;DHT22;590;48.772;8.846;2022-10-01T11:09:46;15.30;99.90
254;DHT22;590;48.772;8.846;2022-10-01T11:12:33;15.20;99.90
254;DHT22;590;48.772;8.846;2022-10-01T11:15:18;15.10;99.90
254;DHT22;590;48.772;8.846;2022-10-01T11:18:16;15.10;99.90
254;DHT22;590;48.772;8.846;2022-10-01T11:20:55;15.00;99.90
254;DHT22;590;48.772;8.846;2022-10-01T11:26:27;14.70;99.90
254;DHT22;590;48.772;8.846;2022-10-01T11:29:07;14.50;99.90
254;DHT22;590;48.772;8.846;2022-10-01T11:31:39;14.40;99.90
254;DHT22;590;48.772;8.846;2022-10-01T11:34:29;14.40;99.90
254;DHT22;590;48.772;8.846;2022-10-01T11:37:06;14.30;99.90
254;DHT22;590;48.772;8.846;2022-10-01T11:39:39;14.20;99.90
254;DHT22;590;48.772;8.846;2022-10-01T11:42:11;14.10;99.90
254;DHT22;590;48.772;8.846;2022-10-01T11:44:44;14.00;99.90
254;DHT22;590;48.772;8.846;2022-10-01T11:47:16;14.00;99.90
254;DHT22;590;48.772;8.846;2022-10-01T11:49:53;13.90;99.90
254;DHT22;590;48.772;8.846;2022-10-01T11:52:34;13.90;99.90
254;DHT22;590;48.772;8.846;2022-10-01T11:55:13;13.90;99.90
254;DHT22;590;48.772;8.846;2022-10-01T11:58:06;13.90;99.90
254;DHT22;590;48.772;8.846;2022-10-01T12:01:01;13.90;99.90
254;DHT22;590;48.772;8.846;2022-10-01T12:03:36;14.00;99.90
254;DHT22;590;48.772;8.846;2022-10-01T12:06:09;14.10;99.90
254;DHT22;590;48.772;8.846;2022-10-01T12:08:45;14.20;99.90
254;DHT22;590;48.772;8.846;2022-10-01T12:11:17;14.30;99.90
254;DHT22;590;48.772;8.846;2022-10-01T12:13:54;14.50;99.90
254;DHT22;590;48.772;8.846;2022-10-01T12:16:32;14.70;99.90
254;DHT22;590;48.772;8.846;2022-10-01T12:19:04;14.80;99.90
254;DHT22;590;48.772;8.846;2022-10-01T12:21:38;14.90;99.90
254;DHT22;590;48.772;8.846;2022-10-01T12:24:12;15.10;99.90
254;DHT22;590;48.772;8.846;2022-10-01T12:26:46;15.20;99.90
254;DHT22;590;48.772;8.846;2022-10-01T12:29:18;15.30;99.90
254;DHT22;590;48.772;8.846;2022-10-01T12:31:54;15.30;99.90
254;DHT22;590;48.772;8.846;2022-10-01T12:34:32;15.40;99.90
254;DHT22;590;48.772;8.846;2022-10-01T12:37:13;15.40;99.90
254;DHT22;590;48.772;8.846;2022-10-01T12:39:56;15.50;99.90
254;DHT22;590;48.772;8.846;2022-10-01T12:42:40;15.50;99.90
254;DHT22;590;48.772;8.846;2022-10-01T12:45:21;15.50;99.90
254;DHT22;590;48.772;8.846;2022-10-01T12:47:58;15.50;99.90
254;DHT22;590;48.772;8.846;2022-10-01T12:50:37;15.60;99.90
254;DHT22;590;48.772;8.846;2022-10-01T12:53:20;15.60;99.90
254;DHT22;590;48.772;8.846;2022-10-01T12:56:03;15.70;99.30
254;DHT22;590;48.772;8.846;2022-10-01T12:58:50;15.70;99.30
254;DHT22;590;48.772;8.846;2022-10-01T13:01:31;15.90;99.40
254;DHT22;590;48.772;8.846;2022-10-01T13:04:15;16.10;99.20
254;DHT22;590;48.772;8.846;2022-10-01T13:07:03;16.30;97.50
254;DHT22;590;48.772;8.846;2022-10-01T13:09:45;16.50;95.60
254;DHT22;590;48.772;8.846;2022-10-01T13:12:29;16.60;93.40
254;DHT22;590;48.772;8.846;2022-10-01T13:15:06;16.80;92.60
254;DHT22;590;48.772;8.846;2022-10-01T13:17:42;17.00;92.30
254;DHT22;590;48.772;8.846;2022-10-01T13:20:18;17.20;90.50
254;DHT22;590;48.772;8.846;2022-10-01T13:22:51;17.40;88.10
254;DHT22;590;48.772;8.846;2022-10-01T13:25:30;17.50;85.20
254;DHT22;590;48.772;8.846;2022-10-01T13:28:04;17.70;81.10
254;DHT22;590;48.772;8.846;2022-10-01T13:30:48;17.70;80.60
254;DHT22;590;48.772;8.846;2022-10-01T13:33:23;17.60;78.80
254;DHT22;590;48.772;8.846;2022-10-01T13:35:54;17.80;78.00
254;DHT22;590;48.772;8.846;2022-10-01T13:38:28;17.80;75.70
254;DHT22;590;48.772;8.846;2022-10-01T13:40:59;17.80;76.70
254;DHT22;590;48.772;8.846;2022-10-01T13:43:29;17.90;76.80
254;DHT22;590;48.772;8.846;2022-10-01T13:46:05;17.80;75.00
254;DHT22;590;48.772;8.846;2022-10-01T13:48:36;17.70;72.50
254;DHT22;590;48.772;8.846;2022-10-01T13:51:06;17.60;72.00
254;DHT22;590;48.772;8.846;2022-10-01T13:53:37;17.60;73.00
254;DHT22;590;48.772;8.846;2022-10-01T13:56:26;17.70;74.60
254;DHT22;590;48.772;8.846;2022-10-01T13:58:55;17.70;74.80
254;DHT22;590;48.772;8.846;2022-10-01T14:01:36;17.70;74.40
254;DHT22;590;48.772;8.846;2022-10-01T14:04:14;17.90;73.20
254;DHT22;590;48.772;8.846;2022-10-01T14:06:46;17.90;72.30
254;DHT22;590;48.772;8.846;2022-10-01T14:09:20;17.90;72.80
254;DHT22;590;48.772;8.846;2022-10-01T14:11:54;17.80;70.70
254;DHT22;590;48.772;8.846;2022-10-01T14:14:46;17.70;71.20
254;DHT22;590;48.772;8.846;2022-10-01T14:17:33;17.60;71.00
254;DHT22;590;48.772;8.846;2022-10-01T14:20:02;17.50;71.80
254;DHT22;590;48.772;8.846;2022-10-01T14:22:45;17.50;72.00
254;DHT22;590;48.772;8.846;2022-10-01T14:25:25;17.40;72.30
254;DHT22;590;48.772;8.846;2022-10-01T14:28:15;17.40;71.90
254;DHT22;590;48.772;8.846;2022-10-01T14:30:53;17.40;71.40
254;DHT22;590;48.772;8.846;2022-10-01T14:33:42;17.40;71.20
254;DHT22;590;48.772;8.846;2022-10-01T14:36:15;17.40;70.50
254;DHT22;590;48.772;8.846;2022-10-01T14:38:43;17.30;70.20
254;DHT22;590;48.772;8.846;2022-10-01T14:41:16;17.20;70.50
254;DHT22;590;48.772;8.846;2022-10-01T14:43:46;17.10;70.40
254;DHT22;590;48.772;8.846;2022-10-01T14:46:16;17.00;69.90
254;DHT22;590;48.772;8.846;2022-10-01T14:48:56;16.90;70.90
254;DHT22;590;48.772;8.846;2022-10-01T14:51:27;16.80;71.70
254;DHT22;590;48.772;8.846;2022-10-01T14:53:57;16.60;72.20
254;DHT22;590;48.772;8.846;2022-10-01T14:56:26;16.50;72.80
254;DHT22;590;48.772;8.846;2022-10-01T14:58:58;16.50;73.80
254;DHT22;590;48.772;8.846;2022-10-01T15:01:28;16.40;73.10
254;DHT22;590;48.772;8.846;2022-10-01T15:03:56;16.30;74.30
254;DHT22;590;48.772;8.846;2022-10-01T15:06:26;16.20;74.60
254;DHT22;590;48.772;8.846;2022-10-01T15:09:06;16.20;75.70
254;DHT22;590;48.772;8.846;2022-10-01T15:11:38;16.20;75.50
254;DHT22;590;48.772;8.846;2022-10-01T15:14:15;16.10;76.40
254;DHT22;590;48.772;8.846;2022-10-01T15:16:44;16.10;76.00
254;DHT22;590;48.772;8.846;2022-10-01T15:19:15;16.00;76.50
254;DHT22;590;48.772;8.846;2022-10-01T15:21:47;16.00;76.60
254;DHT22;590;48.772;8.846;2022-10-01T15:24:21;15.90;77.00
254;DHT22;590;48.772;8.846;2022-10-01T15:26:51;15.90;77.60
254;DHT22;590;48.772;8.846;2022-10-01T15:29:22;15.80;78.40
254;DHT22;590;48.772;8.846;2022-10-01T15:31:51;15.80;80.40
254;DHT22;590;48.772;8.846;2022-10-01T15:34:22;15.70;80.10
254;DHT22;590;48.772;8.846;2022-10-01T15:36:51;15.70;80.10
254;DHT22;590;48.772;8.846;2022-10-01T15:39:27;15.70;80.50
254;DHT22;590;48.772;8.846;2022-10-01T15:41:57;15.70;80.40
254;DHT22;590;48.772;8.846;2022-10-01T15:44:41;15.70;80.30
254;DHT22;590;48.772;8.846;2022-10-01T15:47:26;15.80;80.70
254;DHT22;590;48.772;8.846;2022-10-01T15:50:03;15.80;80.20
254;DHT22;590;48.772;8.846;2022-10-01T15:52:35;15.80;80.80
254;DHT22;590;48.772;8.846;2022-10-01T15:55:23;15.80;80.00
254;DHT22;590;48.772;8.846;2022-10-01T15:57:56;15.80;80.40
254;DHT22;590;48.772;8.846;2022-10-01T16:00:36;15.80;79.50
254;DHT22;590;48.772;8.846;2022-10-01T16:03:16;15.80;79.50
254;DHT22;590;48.772;8.846;2022-10-01T16:05:46;15.80;79.60
254;DHT22;590;48.772;8.846;2022-10-01T16:08:15;15.80;79.70
254;DHT22;590;48.772;8.846;2022-10-01T16:10:48;15.70;79.40
254;DHT22;590;48.772;8.846;2022-10-01T16:13:35;15.70;79.80
254;DHT22;590;48.772;8.846;2022-10-01T16:16:17;15.60;79.20
254;DHT22;590;48.772;8.846;2022-10-01T16:18:47;15.60;79.50
254;DHT22;590;48.772;8.846;2022-10-01T16:21:20;15.50;80.00
254;DHT22;590;48.772;8.846;2022-10-01T16:23:49;15.40;81.00
254;DHT22;590;48.772;8.846;2022-10-01T16:26:32;15.40;81.90
254;DHT22;590;48.772;8.846;2022-10-01T16:29:04;15.30;82.60
254;DHT22;590;48.772;8.846;2022-10-01T16:31:35;15.30;83.70
254;DHT22;590;48.772;8.846;2022-10-01T16:34:10;15.20;84.30
254;DHT22;590;48.772;8.846;2022-10-01T16:36:41;15.10;84.40
254;DHT22;590;48.772;8.846;2022-10-01T16:39:10;15.10;84.90
254;DHT22;590;48.772;8.846;2022-10-01T16:41:41;15.10;85.90
254;DHT22;590;48.772;8.846;2022-10-01T16:44:11;15.00;86.30
254;DHT22;590;48.772;8.846;2022-10-01T16:46:41;14.90;86.40
254;DHT22;590;48.772;8.846;2022-10-01T16:49:14;14.90;86.70
254;DHT22;590;48.772;8.846;2022-10-01T16:51:43;14.90;87.80
254;DHT22;590;48.772;8.846;2022-10-01T16:54:19;14.80;89.00
254;DHT22;590;48.772;8.846;2022-10-01T16:56:49;14.80;90.00
254;DHT22;590;48.772;8.846;2022-10-01T16:59:18;14.70;90.30
254;DHT22;590;48.772;8.846;2022-10-01T17:01:50;14.70;90.60
254;DHT22;590;48.772;8.846;2022-10-01T17:04:21;14.70;90.30
254;DHT22;590;48.772;8.846;2022-10-01T17:06:49;14.60;90.30
254;DHT22;590;48.772;8.846;2022-10-01T17:09:17;14.60;90.50
254;DHT22;590;48.772;8.846;2022-10-01T17:11:45;14.50;90.60
254;DHT22;590;48.772;8.846;2022-10-01T17:14:15;14.50;90.60
254;DHT22;590;48.772;8.846;2022-10-01T17:16:43;14.50;91.00
254;DHT22;590;48.772;8.846;2022-10-01T17:19:16;14.50;91.20
254;DHT22;590;48.772;8.846;2022-10-01T17:21:44;14.50;91.30
254;DHT22;590;48.772;8.846;2022-10-01T17:24:12;14.40;91.20